Aviation Digital Data Service (ADDS)

Output produced by METARs form (0432 UTC 19 August 2019)
found at http://www.aviationweather.gov/metar/data/
 
METAR text: HESH 190400Z 35008KT CAVOK 29/17 Q1007 NOSIG
Conditions at: HESH (SHARM EL SHEIKHI, EG) observed 0400 UTC 19 August 2019
Temperature: 29.0°C (84°F)
Dewpoint: 17.0°C (63°F) [RH = 48%]
Pressure (altimeter): 29.73 inches Hg (1007.0 mb)
Winds: from the N (350 degrees) at 9 MPH (8 knots; 4.1 m/s)
Visibility: 6 or more miles (10+ km)
Ceiling: ceiling and visibility are OK
Clouds: unknown
Weather: no significant weather observed at this time

METAR text: HESH 190300Z 35009KT CAVOK 29/17 Q1007 NOSIG
Conditions at: HESH (SHARM EL SHEIKHI, EG) observed 0300 UTC 19 August 2019
Temperature: 29.0°C (84°F)
Dewpoint: 17.0°C (63°F) [RH = 48%]
Pressure (altimeter): 29.73 inches Hg (1007.0 mb)
Winds: from the N (350 degrees) at 10 MPH (9 knots; 4.6 m/s)
Visibility: 6 or more miles (10+ km)
Ceiling: ceiling and visibility are OK
Clouds: unknown
Weather: no significant weather observed at this time

METAR text: HESH 190100Z 35008KT CAVOK 30/18 Q1006 NOSIG
Conditions at: HESH (SHARM EL SHEIKHI, EG) observed 0100 UTC 19 August 2019
Temperature: 30.0°C (86°F)
Dewpoint: 18.0°C (64°F) [RH = 49%]
Pressure (altimeter): 29.70 inches Hg (1006.0 mb)
Winds: from the N (350 degrees) at 9 MPH (8 knots; 4.1 m/s)
Visibility: 6 or more miles (10+ km)
Ceiling: ceiling and visibility are OK
Clouds: unknown
Weather: no significant weather observed at this time

METAR text: HESH 190000Z 35009KT CAVOK 30/18 Q1006 NOSIG
Conditions at: HESH (SHARM EL SHEIKHI, EG) observed 0000 UTC 19 August 2019
Temperature: 30.0°C (86°F)
Dewpoint: 18.0°C (64°F) [RH = 49%]
Pressure (altimeter): 29.70 inches Hg (1006.0 mb)
Winds: from the N (350 degrees) at 10 MPH (9 knots; 4.6 m/s)
Visibility: 6 or more miles (10+ km)
Ceiling: ceiling and visibility are OK
Clouds: unknown
Weather: no significant weather observed at this time

METAR text: HESH 182300Z 35010KT CAVOK 31/19 Q1006 NOSIG
Conditions at: HESH (SHARM EL SHEIKHI, EG) observed 2300 UTC 18 August 2019
Temperature: 31.0°C (88°F)
Dewpoint: 19.0°C (66°F) [RH = 49%]
Pressure (altimeter): 29.70 inches Hg (1006.0 mb)
Winds: from the N (350 degrees) at 12 MPH (10 knots; 5.1 m/s)
Visibility: 6 or more miles (10+ km)
Ceiling: ceiling and visibility are OK
Clouds: unknown
Weather: no significant weather observed at this time

METAR text: HESH 182200Z 36010KT CAVOK 32/17 Q1005 NOSIG
Conditions at: HESH (SHARM EL SHEIKHI, EG) observed 2200 UTC 18 August 2019
Temperature: 32.0°C (90°F)
Dewpoint: 17.0°C (63°F) [RH = 41%]
Pressure (altimeter): 29.68 inches Hg (1005.0 mb)
Winds: from the N (360 degrees) at 12 MPH (10 knots; 5.1 m/s)
Visibility: 6 or more miles (10+ km)
Ceiling: ceiling and visibility are OK
Clouds: unknown
Weather: no significant weather observed at this time

METAR text: HESH 182100Z 35007KT CAVOK 33/17 Q1006 NOSIG
Conditions at: HESH (SHARM EL SHEIKHI, EG) observed 2100 UTC 18 August 2019
Temperature: 33.0°C (91°F)
Dewpoint: 17.0°C (63°F) [RH = 39%]
Pressure (altimeter): 29.70 inches Hg (1006.0 mb)
Winds: from the N (350 degrees) at 8 MPH (7 knots; 3.6 m/s)
Visibility: 6 or more miles (10+ km)
Ceiling: ceiling and visibility are OK
Clouds: unknown
Weather: no significant weather observed at this time

METAR text: HESH 182000Z 36009KT CAVOK 33/17 Q1005 NOSIG
Conditions at: HESH (SHARM EL SHEIKHI, EG) observed 2000 UTC 18 August 2019
Temperature: 33.0°C (91°F)
Dewpoint: 17.0°C (63°F) [RH = 39%]
Pressure (altimeter): 29.68 inches Hg (1005.0 mb)
Winds: from the N (360 degrees) at 10 MPH (9 knots; 4.6 m/s)
Visibility: 6 or more miles (10+ km)
Ceiling: ceiling and visibility are OK
Clouds: unknown
Weather: no significant weather observed at this time

METAR text: HESH 181900Z 01004KT CAVOK 34/16 Q1005 NOSIG
Conditions at: HESH (SHARM EL SHEIKHI, EG) observed 1900 UTC 18 August 2019
Temperature: 34.0°C (93°F)
Dewpoint: 16.0°C (61°F) [RH = 34%]
Pressure (altimeter): 29.68 inches Hg (1005.0 mb)
Winds: from the N (10 degrees) at 5 MPH (4 knots; 2.1 m/s)
Visibility: 6 or more miles (10+ km)
Ceiling: ceiling and visibility are OK
Clouds: unknown
Weather: no significant weather observed at this time

METAR text: HESH 181800Z 35004KT CAVOK 35/15 Q1005 NOSIG
Conditions at: HESH (SHARM EL SHEIKHI, EG) observed 1800 UTC 18 August 2019
Temperature: 35.0°C (95°F)
Dewpoint: 15.0°C (59°F) [RH = 30%]
Pressure (altimeter): 29.68 inches Hg (1005.0 mb)
Winds: from the N (350 degrees) at 5 MPH (4 knots; 2.1 m/s)
Visibility: 6 or more miles (10+ km)
Ceiling: ceiling and visibility are OK
Clouds: unknown
Weather: no significant weather observed at this time

METAR text: HESH 181700Z 00000KT CAVOK 35/14 Q1004 NOSIG
Conditions at: HESH (SHARM EL SHEIKHI, EG) observed 1700 UTC 18 August 2019
Temperature: 35.0°C (95°F)
Dewpoint: 14.0°C (57°F) [RH = 28%]
Pressure (altimeter): 29.65 inches Hg (1004.0 mb)
Winds: calm
Visibility: 6 or more miles (10+ km)
Ceiling: ceiling and visibility are OK
Clouds: unknown
Weather: no significant weather observed at this time

METAR text: HESH 181600Z 02003KT CAVOK 36/14 Q1004 NOSIG
Conditions at: HESH (SHARM EL SHEIKHI, EG) observed 1600 UTC 18 August 2019
Temperature: 36.0°C (97°F)
Dewpoint: 14.0°C (57°F) [RH = 27%]
Pressure (altimeter): 29.65 inches Hg (1004.0 mb)
Winds: from the NNE (20 degrees) at 3 MPH (3 knots; 1.5 m/s)
Visibility: 6 or more miles (10+ km)
Ceiling: ceiling and visibility are OK
Clouds: unknown
Weather: no significant weather observed at this time

METAR text: HESH 181400Z 10004KT CAVOK 37/18 Q1004 NOSIG
Conditions at: HESH (SHARM EL SHEIKHI, EG) observed 1400 UTC 18 August 2019
Temperature: 37.0°C (99°F)
Dewpoint: 18.0°C (64°F) [RH = 33%]
Pressure (altimeter): 29.65 inches Hg (1004.0 mb)
Winds: from the E (100 degrees) at 5 MPH (4 knots; 2.1 m/s)
Visibility: 6 or more miles (10+ km)
Ceiling: ceiling and visibility are OK
Clouds: unknown
Weather: no significant weather observed at this time

METAR text: HESH 181300Z 11005KT CAVOK 37/17 Q1005 NOSIG
Conditions at: HESH (SHARM EL SHEIKHI, EG) observed 1300 UTC 18 August 2019
Temperature: 37.0°C (99°F)
Dewpoint: 17.0°C (63°F) [RH = 31%]
Pressure (altimeter): 29.68 inches Hg (1005.0 mb)
Winds: from the ESE (110 degrees) at 6 MPH (5 knots; 2.6 m/s)
Visibility: 6 or more miles (10+ km)
Ceiling: ceiling and visibility are OK
Clouds: unknown
Weather: no significant weather observed at this time

METAR text: HESH 181200Z 11005KT CAVOK 37/17 Q1005 NOSIG
Conditions at: HESH (SHARM EL SHEIKHI, EG) observed 1200 UTC 18 August 2019
Temperature: 37.0°C (99°F)
Dewpoint: 17.0°C (63°F) [RH = 31%]
Pressure (altimeter): 29.68 inches Hg (1005.0 mb)
Winds: from the ESE (110 degrees) at 6 MPH (5 knots; 2.6 m/s)
Visibility: 6 or more miles (10+ km)
Ceiling: ceiling and visibility are OK
Clouds: unknown
Weather: no significant weather observed at this time

METAR text: HESH 181100Z 02009KT CAVOK 35/17 Q1006 NOSIG
Conditions at: HESH (SHARM EL SHEIKHI, EG) observed 1100 UTC 18 August 2019
Temperature: 35.0°C (95°F)
Dewpoint: 17.0°C (63°F) [RH = 34%]
Pressure (altimeter): 29.70 inches Hg (1006.0 mb)
Winds: from the NNE (20 degrees) at 10 MPH (9 knots; 4.6 m/s)
Visibility: 6 or more miles (10+ km)
Ceiling: ceiling and visibility are OK
Clouds: unknown
Weather: no significant weather observed at this time

METAR text: HESH 181000Z 02009KT CAVOK 35/17 Q1006 NOSIG
Conditions at: HESH (SHARM EL SHEIKHI, EG) observed 1000 UTC 18 August 2019
Temperature: 35.0°C (95°F)
Dewpoint: 17.0°C (63°F) [RH = 34%]
Pressure (altimeter): 29.70 inches Hg (1006.0 mb)
Winds: from the NNE (20 degrees) at 10 MPH (9 knots; 4.6 m/s)
Visibility: 6 or more miles (10+ km)
Ceiling: ceiling and visibility are OK
Clouds: unknown
Weather: no significant weather observed at this time

METAR text: HESH 180900Z 03011KT CAVOK 34/17 Q1006 NOSIG
Conditions at: HESH (SHARM EL SHEIKHI, EG) observed 0900 UTC 18 August 2019
Temperature: 34.0°C (93°F)
Dewpoint: 17.0°C (63°F) [RH = 36%]
Pressure (altimeter): 29.70 inches Hg (1006.0 mb)
Winds: from the NNE (30 degrees) at 13 MPH (11 knots; 5.7 m/s)
Visibility: 6 or more miles (10+ km)
Ceiling: ceiling and visibility are OK
Clouds: unknown
Weather: no significant weather observed at this time

METAR text: HESH 180800Z 01012KT CAVOK 34/18 Q1006 NOSIG
Conditions at: HESH (SHARM EL SHEIKHI, EG) observed 0800 UTC 18 August 2019
Temperature: 34.0°C (93°F)
Dewpoint: 18.0°C (64°F) [RH = 39%]
Pressure (altimeter): 29.70 inches Hg (1006.0 mb)
Winds: from the N (10 degrees) at 14 MPH (12 knots; 6.2 m/s)
Visibility: 6 or more miles (10+ km)
Ceiling: ceiling and visibility are OK
Clouds: unknown
Weather: no significant weather observed at this time

METAR text: HESH 180700Z 02010KT CAVOK 33/17 Q1006 NOSIG
Conditions at: HESH (SHARM EL SHEIKHI, EG) observed 0700 UTC 18 August 2019
Temperature: 33.0°C (91°F)
Dewpoint: 17.0°C (63°F) [RH = 39%]
Pressure (altimeter): 29.70 inches Hg (1006.0 mb)
Winds: from the NNE (20 degrees) at 12 MPH (10 knots; 5.1 m/s)
Visibility: 6 or more miles (10+ km)
Ceiling: ceiling and visibility are OK
Clouds: unknown
Weather: no significant weather observed at this time

METAR text: HESH 180600Z 02010KT CAVOK 33/16 Q1006 NOSIG
Conditions at: HESH (SHARM EL SHEIKHI, EG) observed 0600 UTC 18 August 2019
Temperature: 33.0°C (91°F)
Dewpoint: 16.0°C (61°F) [RH = 36%]
Pressure (altimeter): 29.70 inches Hg (1006.0 mb)
Winds: from the NNE (20 degrees) at 12 MPH (10 knots; 5.1 m/s)
Visibility: 6 or more miles (10+ km)
Ceiling: ceiling and visibility are OK
Clouds: unknown
Weather: no significant weather observed at this time

METAR text: HESH 180500Z 35004KT CAVOK 32/17 Q1006 NOSIG
Conditions at: HESH (SHARM EL SHEIKHI, EG) observed 0500 UTC 18 August 2019
Temperature: 32.0°C (90°F)
Dewpoint: 17.0°C (63°F) [RH = 41%]
Pressure (altimeter): 29.70 inches Hg (1006.0 mb)
Winds: from the N (350 degrees) at 5 MPH (4 knots; 2.1 m/s)
Visibility: 6 or more miles (10+ km)
Ceiling: ceiling and visibility are OK
Clouds: unknown
Weather: no significant weather observed at this time

METAR text: HESH 180400Z 35010KT CAVOK 31/23 Q1006 NOSIG
Conditions at: HESH (SHARM EL SHEIKHI, EG) observed 0400 UTC 18 August 2019
Temperature: 31.0°C (88°F)
Dewpoint: 23.0°C (73°F) [RH = 63%]
Pressure (altimeter): 29.70 inches Hg (1006.0 mb)
Winds: from the N (350 degrees) at 12 MPH (10 knots; 5.1 m/s)
Visibility: 6 or more miles (10+ km)
Ceiling: ceiling and visibility are OK
Clouds: unknown
Weather: no significant weather observed at this time

METAR text: HESH 180300Z 36010KT CAVOK 30/23 Q1005 NOSIG
Conditions at: HESH (SHARM EL SHEIKHI, EG) observed 0300 UTC 18 August 2019
Temperature: 30.0°C (86°F)
Dewpoint: 23.0°C (73°F) [RH = 66%]
Pressure (altimeter): 29.68 inches Hg (1005.0 mb)
Winds: from the N (360 degrees) at 12 MPH (10 knots; 5.1 m/s)
Visibility: 6 or more miles (10+ km)
Ceiling: ceiling and visibility are OK
Clouds: unknown
Weather: no significant weather observed at this time

METAR text: HESH 180200Z 35008KT CAVOK 30/23 Q1005 NOSIG
Conditions at: HESH (SHARM EL SHEIKHI, EG) observed 0200 UTC 18 August 2019
Temperature: 30.0°C (86°F)
Dewpoint: 23.0°C (73°F) [RH = 66%]
Pressure (altimeter): 29.68 inches Hg (1005.0 mb)
Winds: from the N (350 degrees) at 9 MPH (8 knots; 4.1 m/s)
Visibility: 6 or more miles (10+ km)
Ceiling: ceiling and visibility are OK
Clouds: unknown
Weather: no significant weather observed at this time

METAR text: HESH 180100Z 35007KT CAVOK 30/25 Q1005 NOSIG
Conditions at: HESH (SHARM EL SHEIKHI, EG) observed 0100 UTC 18 August 2019
Temperature: 30.0°C (86°F)
Dewpoint: 25.0°C (77°F) [RH = 75%]
Pressure (altimeter): 29.68 inches Hg (1005.0 mb)
Winds: from the N (350 degrees) at 8 MPH (7 knots; 3.6 m/s)
Visibility: 6 or more miles (10+ km)
Ceiling: ceiling and visibility are OK
Clouds: unknown
Weather: no significant weather observed at this time

METAR text: HESH 180000Z 36006KT CAVOK 31/21 Q1005 NOSIG
Conditions at: HESH (SHARM EL SHEIKHI, EG) observed 0000 UTC 18 August 2019
Temperature: 31.0°C (88°F)
Dewpoint: 21.0°C (70°F) [RH = 55%]
Pressure (altimeter): 29.68 inches Hg (1005.0 mb)
Winds: from the N (360 degrees) at 7 MPH (6 knots; 3.1 m/s)
Visibility: 6 or more miles (10+ km)
Ceiling: ceiling and visibility are OK
Clouds: unknown
Weather: no significant weather observed at this time

METAR text: HESH 172300Z 01010KT CAVOK 32/20 Q1005 NOSIG
Conditions at: HESH (SHARM EL SHEIKHI, EG) observed 2300 UTC 17 August 2019
Temperature: 32.0°C (90°F)
Dewpoint: 20.0°C (68°F) [RH = 49%]
Pressure (altimeter): 29.68 inches Hg (1005.0 mb)
Winds: from the N (10 degrees) at 12 MPH (10 knots; 5.1 m/s)
Visibility: 6 or more miles (10+ km)
Ceiling: ceiling and visibility are OK
Clouds: unknown
Weather: no significant weather observed at this time

METAR text: HESH 172200Z 02010KT CAVOK 32/20 Q1005 NOSIG
Conditions at: HESH (SHARM EL SHEIKHI, EG) observed 2200 UTC 17 August 2019
Temperature: 32.0°C (90°F)
Dewpoint: 20.0°C (68°F) [RH = 49%]
Pressure (altimeter): 29.68 inches Hg (1005.0 mb)
Winds: from the NNE (20 degrees) at 12 MPH (10 knots; 5.1 m/s)
Visibility: 6 or more miles (10+ km)
Ceiling: ceiling and visibility are OK
Clouds: unknown
Weather: no significant weather observed at this time

METAR text: HESH 172100Z 36014KT CAVOK 33/18 Q1005 NOSIG
Conditions at: HESH (SHARM EL SHEIKHI, EG) observed 2100 UTC 17 August 2019
Temperature: 33.0°C (91°F)
Dewpoint: 18.0°C (64°F) [RH = 41%]
Pressure (altimeter): 29.68 inches Hg (1005.0 mb)
Winds: from the N (360 degrees) at 16 MPH (14 knots; 7.2 m/s)
Visibility: 6 or more miles (10+ km)
Ceiling: ceiling and visibility are OK
Clouds: unknown
Weather: no significant weather observed at this time

METAR text: HESH 172000Z 01012KT CAVOK 35/18 Q1005 NOSIG
Conditions at: HESH (SHARM EL SHEIKHI, EG) observed 2000 UTC 17 August 2019
Temperature: 35.0°C (95°F)
Dewpoint: 18.0°C (64°F) [RH = 37%]
Pressure (altimeter): 29.68 inches Hg (1005.0 mb)
Winds: from the N (10 degrees) at 14 MPH (12 knots; 6.2 m/s)
Visibility: 6 or more miles (10+ km)
Ceiling: ceiling and visibility are OK
Clouds: unknown
Weather: no significant weather observed at this time

METAR text: HESH 171900Z 35012KT CAVOK 34/14 Q1005 NOSIG
Conditions at: HESH (SHARM EL SHEIKHI, EG) observed 1900 UTC 17 August 2019
Temperature: 34.0°C (93°F)
Dewpoint: 14.0°C (57°F) [RH = 30%]
Pressure (altimeter): 29.68 inches Hg (1005.0 mb)
Winds: from the N (350 degrees) at 14 MPH (12 knots; 6.2 m/s)
Visibility: 6 or more miles (10+ km)
Ceiling: ceiling and visibility are OK
Clouds: unknown
Weather: no significant weather observed at this time

METAR text: HESH 171800Z 35010KT CAVOK 36/15 Q1004 NOSIG
Conditions at: HESH (SHARM EL SHEIKHI, EG) observed 1800 UTC 17 August 2019
Temperature: 36.0°C (97°F)
Dewpoint: 15.0°C (59°F) [RH = 29%]
Pressure (altimeter): 29.65 inches Hg (1004.0 mb)
Winds: from the N (350 degrees) at 12 MPH (10 knots; 5.1 m/s)
Visibility: 6 or more miles (10+ km)
Ceiling: ceiling and visibility are OK
Clouds: unknown
Weather: no significant weather observed at this time

METAR text: HESH 171700Z 36008KT CAVOK 37/13 Q1004 NOSIG
Conditions at: HESH (SHARM EL SHEIKHI, EG) observed 1700 UTC 17 August 2019
Temperature: 37.0°C (99°F)
Dewpoint: 13.0°C (55°F) [RH = 24%]
Pressure (altimeter): 29.65 inches Hg (1004.0 mb)
Winds: from the N (360 degrees) at 9 MPH (8 knots; 4.1 m/s)
Visibility: 6 or more miles (10+ km)
Ceiling: ceiling and visibility are OK
Clouds: unknown
Weather: no significant weather observed at this time

Forecast for: HESH (SHARM EL SHEIKHI, EG)
Text: TAF HESH 182300Z 1900/2006 34010KT CAVOK
Forecast period: 0000 UTC 19 August 2019 to 0600 UTC 20 August 2019
Forecast type: FROM: standard forecast or significant change
Winds: from the NNW (340 degrees) at 12 MPH (10 knots; 5.1 m/s)
Visibility: 6 or more miles 10+ km)
Ceiling: unknown
Clouds: missing
Weather: NSW  (no significant weather)